Time;durP1;ratioP1;P1;durP2;ratioP2;P2;SDS_P1;SDS_P2;PMS_P1;PMS_P2;Temp;Humidity;BMP_temperature;BMP_pressure;BME280_temperature;BME280_humidity;BME280_pressure;Samples;Min_cycle;Max_cycle;Signal;HPM_P1;HPM_P2
2021/07/03 00:00:41;;;;;;;26.67;23.85;;;;;;;;;;2045072;29;20190;-57
2021/07/03 00:01:41;;;;;;;27.17;23.88;;;;;;;;;;2046722;28;20663;-49
2021/07/03 00:02:42;;;;;;;26.65;23.75;;;;;;;;;;2046358;29;20235;-56
2021/07/03 00:03:42;;;;;;;27.83;24.65;;;;;;;;;;2044843;28;20191;-53
2021/07/03 00:04:43;;;;;;;27.42;23.55;;;;;;;;;;2043656;29;20210;-48
2021/07/03 00:05:43;;;;;;;28.73;23.95;;;;;;;;;;2046034;28;20210;-47
2021/07/03 00:06:43;;;;;;;29.42;24.73;;;;;;;;;;2045633;29;20172;-50
2021/07/03 00:07:43;;;;;;;26.73;23.83;;;;;;;;;;2047218;28;20691;-52
2021/07/03 00:08:44;;;;;;;29.15;24.55;;;;;;;;;;2045417;29;20702;-49
2021/07/03 00:09:44;;;;;;;25.20;22.42;;;;;;;;;;2043638;29;20281;-51
2021/07/03 00:10:44;;;;;;;29.02;24.02;;;;;;;;;;2045086;28;20257;-51
2021/07/03 00:11:45;;;;;;;28.73;22.08;;;;;;;;;;2040860;28;20179;-51
2021/07/03 00:12:45;;;;;;;26.67;21.50;;;;;;;;;;2046393;29;20814;-49
2021/07/03 00:13:46;;;;;;;24.77;22.08;;;;;;;;;;2046263;28;20648;-50
2021/07/03 00:14:46;;;;;;;27.48;22.10;;;;;;;;;;2045465;28;20191;-53
2021/07/03 00:15:46;;;;;;;26.85;22.95;;;;;;;;;;2045016;28;20218;-54
2021/07/03 00:16:47;;;;;;;34.25;26.55;;;;;;;;;;2043887;29;20194;-50
2021/07/03 00:17:48;;;;;;;33.55;27.90;;;;;;;;;;2044891;28;20178;-49
2021/07/03 00:18:48;;;;;;;37.05;29.55;;;;;;;;;;2045698;28;20623;-49
2021/07/03 00:19:48;;;;;;;33.85;29.42;;;;;;;;;;2047025;29;20191;-54
2021/07/03 00:20:49;;;;;;;33.63;28.98;;;;;;;;;;2044590;28;20186;-52
2021/07/03 00:21:49;;;;;;;33.75;29.67;;;;;;;;;;2043617;29;20262;-48
2021/07/03 00:22:49;;;;;;;36.92;29.17;;;;;;;;;;2046452;28;20187;-49
2021/07/03 00:23:49;;;;;;;31.70;28.25;;;;;;;;;;2048031;29;20222;-47
2021/07/03 00:24:50;;;;;;;37.33;28.27;;;;;;;;;;2044474;29;20302;-49
2021/07/03 00:25:51;;;;;;;32.35;27.63;;;;;;;;;;2046121;28;20278;-50
2021/07/03 00:26:51;;;;;;;35.15;29.25;;;;;;;;;;2043764;29;20189;-53
2021/07/03 00:27:51;;;;;;;38.65;29.35;;;;;;;;;;2045729;29;20179;-51
2021/07/03 00:28:51;;;;;;;39.50;30.83;;;;;;;;;;2042067;29;20615;-53
2021/07/03 00:29:52;;;;;;;35.35;29.25;;;;;;;;;;2044186;28;20651;-51
2021/07/03 00:30:52;;;;;;;33.92;28.75;;;;;;;;;;2047360;28;20214;-46
2021/07/03 00:31:52;;;;;;;37.45;30.52;;;;;;;;;;2046479;29;20176;-48
2021/07/03 00:32:53;;;;;;;33.28;29.50;;;;;;;;;;2044915;28;20185;-51
2021/07/03 00:33:53;;;;;;;33.65;29.75;;;;;;;;;;2046615;29;20190;-52
2021/07/03 00:34:55;;;;;;;36.72;29.15;;;;;;;;;;2046480;28;20178;-51
2021/07/03 00:35:55;;;;;;;32.33;28.20;;;;;;;;;;2046360;28;20176;-56
2021/07/03 00:36:55;;;;;;;34.25;28.73;;;;;;;;;;2045593;28;20182;-50
2021/07/03 00:37:56;;;;;;;34.92;30.15;;;;;;;;;;2045118;29;20213;-53
2021/07/03 00:38:56;;;;;;;33.85;28.08;;;;;;;;;;2045987;28;20206;-51
2021/07/03 00:39:57;;;;;;;33.47;27.85;;;;;;;;;;2048137;28;20673;-48
2021/07/03 00:40:57;;;;;;;30.40;26.40;;;;;;;;;;2045188;28;20191;-49
2021/07/03 00:41:58;;;;;;;32.85;26.77;;;;;;;;;;2043661;29;20247;-54
2021/07/03 00:42:58;;;;;;;28.08;24.08;;;;;;;;;;2052237;28;20179;-52
2021/07/03 00:43:59;;;;;;;31.15;26.60;;;;;;;;;;2044239;29;20170;-50
2021/07/03 00:44:59;;;;;;;30.63;26.73;;;;;;;;;;2037846;29;20203;-53
2021/07/03 00:46:00;;;;;;;28.48;25.40;;;;;;;;;;2044711;28;20290;-54
2021/07/03 00:47:01;;;;;;;29.73;25.92;;;;;;;;;;2044652;28;20752;-53
2021/07/03 00:48:02;;;;;;;27.95;24.95;;;;;;;;;;2046121;29;20190;-52
2021/07/03 00:49:03;;;;;;;30.38;25.88;;;;;;;;;;2045399;29;20174;-47
2021/07/03 00:50:08;;;;;;;27.98;24.98;;;;;;;;;;2045557;29;20187;-48
2021/07/03 00:51:09;;;;;;;28.60;25.20;;;;;;;;;;2047048;29;20175;-52
2021/07/03 00:52:09;;;;;;;27.48;24.00;;;;;;;;;;2045801;29;20200;-50
2021/07/03 00:53:11;;;;;;;27.48;24.58;;;;;;;;;;2045272;29;20175;-47
2021/07/03 00:54:12;;;;;;;29.42;26.13;;;;;;;;;;2045758;29;20193;-53
2021/07/03 00:55:14;;;;;;;32.22;26.60;;;;;;;;;;2045602;29;20198;-50
2021/07/03 00:56:15;;;;;;;28.20;23.98;;;;;;;;;;2046365;29;20171;-53
2021/07/03 00:57:15;;;;;;;28.45;24.67;;;;;;;;;;2035815;29;20178;-48
2021/07/03 00:58:18;;;;;;;27.63;24.33;;;;;;;;;;2037077;29;20182;-50
2021/07/03 00:59:18;;;;;;;27.20;24.50;;;;;;;;;;2044793;28;20170;-52
2021/07/03 01:00:21;;;;;;;27.38;24.45;;;;;;;;;;2045087;28;20223;-51
2021/07/03 01:01:22;;;;;;;29.77;25.48;;;;;;;;;;2045706;28;20183;-51
2021/07/03 01:02:22;;;;;;;28.63;25.52;;;;;;;;;;2045944;28;20255;-53
2021/07/03 01:03:23;;;;;;;29.30;25.95;;;;;;;;;;2059139;28;20190;-50
2021/07/03 01:04:25;;;;;;;28.05;24.98;;;;;;;;;;2059044;28;20704;-54
2021/07/03 01:05:26;;;;;;;28.83;25.73;;;;;;;;;;2045397;29;20636;-51
2021/07/03 01:06:28;;;;;;;32.00;25.25;;;;;;;;;;2044354;28;20226;-47
2021/07/03 01:07:28;;;;;;;31.17;25.52;;;;;;;;;;2045784;29;20261;-51
2021/07/03 01:08:30;;;;;;;30.75;27.40;;;;;;;;;;2043103;29;20684;-48
2021/07/03 01:09:31;;;;;;;31.40;27.55;;;;;;;;;;2039296;29;20255;-46
2021/07/03 01:10:32;;;;;;;33.47;28.55;;;;;;;;;;2044934;29;20198;-52
2021/07/03 01:11:47;;;;;;;37.75;30.50;;;;;;;;;;2046075;28;20162;-52
2021/07/03 01:12:47;;;;;;;35.08;30.92;;;;;;;;;;2045406;29;20181;-50
2021/07/03 01:13:48;;;;;;;38.15;30.10;;;;;;;;;;2039285;29;20370;-50
2021/07/03 01:14:53;;;;;;;36.78;29.70;;;;;;;;;;2045116;29;20266;-48
2021/07/03 01:15:58;;;;;;;35.17;30.58;;;;;;;;;;2045756;29;20691;-51
2021/07/03 01:17:01;;;;;;;35.22;30.33;;;;;;;;;;2039103;29;20176;-50
2021/07/03 01:18:01;;;;;;;32.65;29.08;;;;;;;;;;2045366;29;20247;-50
2021/07/03 01:19:02;;;;;;;35.05;28.73;;;;;;;;;;2047465;28;20242;-47
2021/07/03 01:20:03;;;;;;;33.13;27.73;;;;;;;;;;2036345;29;20180;-54
2021/07/03 01:21:04;;;;;;;33.40;28.05;;;;;;;;;;2028362;29;20184;-59
2021/07/03 01:22:06;;;;;;;34.47;28.92;;;;;;;;;;2039075;29;20807;-54
2021/07/03 01:23:06;;;;;;;35.83;29.85;;;;;;;;;;2047135;28;20171;-53
2021/07/03 01:24:07;;;;;;;38.80;32.85;;;;;;;;;;2046711;28;20174;-54
2021/07/03 01:25:07;;;;;;;38.35;32.08;;;;;;;;;;2047932;29;20186;-49
2021/07/03 01:26:08;;;;;;;40.95;33.10;;;;;;;;;;2046522;29;20171;-52
2021/07/03 01:27:13;;;;;;;34.78;29.70;;;;;;;;;;2045638;29;20210;-50
2021/07/03 01:28:14;;;;;;;41.15;32.28;;;;;;;;;;2044013;28;20170;-51
2021/07/03 01:29:18;;;;;;;38.83;31.88;;;;;;;;;;2048175;29;20656;-50
2021/07/03 01:30:19;;;;;;;36.40;31.67;;;;;;;;;;2048488;28;20195;-51
2021/07/03 01:31:20;;;;;;;35.35;30.25;;;;;;;;;;2046749;29;20218;-49
2021/07/03 01:32:22;;;;;;;36.10;30.20;;;;;;;;;;2040098;29;20179;-56
2021/07/03 01:33:23;;;;;;;36.80;28.27;;;;;;;;;;2039112;29;20208;-53
2021/07/03 01:34:26;;;;;;;32.75;26.60;;;;;;;;;;2047486;28;20186;-49
2021/07/03 01:35:28;;;;;;;31.65;27.30;;;;;;;;;;2047592;28;20556;-53
2021/07/03 01:36:30;;;;;;;32.83;27.83;;;;;;;;;;2056133;28;20182;-54
2021/07/03 01:37:30;;;;;;;28.27;25.30;;;;;;;;;;2046184;29;20259;-50
2021/07/03 01:38:32;;;;;;;28.90;25.38;;;;;;;;;;2048739;29;20694;-52
2021/07/03 01:39:40;;;;;;;33.85;26.20;;;;;;;;;;2047625;28;20223;-46
2021/07/03 01:40:40;;;;;;;28.40;24.95;;;;;;;;;;2048605;28;20179;-46
2021/07/03 01:41:44;;;;;;;31.70;26.98;;;;;;;;;;2046895;29;20271;-49
2021/07/03 01:42:47;;;;;;;34.30;26.98;;;;;;;;;;2044986;29;20258;-50
2021/07/03 01:43:48;;;;;;;36.35;28.75;;;;;;;;;;2047388;29;20198;-54
2021/07/03 01:44:49;;;;;;;33.65;28.30;;;;;;;;;;2038361;29;20287;-50
2021/07/03 01:45:51;;;;;;;33.28;28.20;;;;;;;;;;2038028;29;20621;-50
2021/07/03 01:46:54;;;;;;;36.25;29.27;;;;;;;;;;2044409;29;20199;-54
2021/07/03 01:47:54;;;;;;;33.75;29.38;;;;;;;;;;2048925;29;20179;-48
2021/07/03 01:49:00;;;;;;;36.40;29.73;;;;;;;;;;2048562;29;20175;-52
2021/07/03 01:50:09;;;;;;;40.03;30.80;;;;;;;;;;2046402;28;20230;-51
2021/07/03 01:51:09;;;;;;;37.95;30.25;;;;;;;;;;2044526;29;20171;-46
2021/07/03 01:52:14;;;;;;;37.40;29.17;;;;;;;;;;2041633;29;20179;-50
2021/07/03 01:53:14;;;;;;;32.25;28.70;;;;;;;;;;2041513;29;20206;-49
2021/07/03 01:54:14;;;;;;;36.25;28.02;;;;;;;;;;2047043;28;20198;-50
2021/07/03 01:55:20;;;;;;;34.78;26.60;;;;;;;;;;2045776;28;20167;-51
2021/07/03 01:56:21;;;;;;;35.20;27.75;;;;;;;;;;2045319;29;20171;-53
2021/07/03 01:57:22;;;;;;;32.45;29.02;;;;;;;;;;2048125;28;20197;-50
2021/07/03 01:58:42;;;;;;;29.50;26.17;;;;;;;;;;2040080;29;20194;-51
2021/07/03 01:59:50;;;;;;;32.38;26.33;;;;;;;;;;2049502;29;20230;-52
2021/07/03 02:00:53;;;;;;;31.13;27.05;;;;;;;;;;2037083;29;20188;-53
2021/07/03 02:01:54;;;;;;;30.70;27.38;;;;;;;;;;2038539;29;20206;-51
2021/07/03 02:02:58;;;;;;;28.42;25.35;;;;;;;;;;2040145;29;20231;-47
2021/07/03 02:04:15;;;;;;;28.27;24.48;;;;;;;;;;2046726;29;20216;-54
2021/07/03 02:05:18;;;;;;;29.88;24.58;;;;;;;;;;2047123;29;20183;-47
2021/07/03 02:06:19;;;;;;;27.48;24.75;;;;;;;;;;2046446;29;20261;-55
2021/07/03 02:07:19;;;;;;;30.08;24.20;;;;;;;;;;2046729;29;20178;-51
2021/07/03 02:08:21;;;;;;;29.08;25.88;;;;;;;;;;2046849;29;20675;-49
2021/07/03 02:09:31;;;;;;;32.25;25.73;;;;;;;;;;2046873;29;20269;-49
2021/07/03 02:10:36;;;;;;;30.40;27.20;;;;;;;;;;2037822;29;20199;-50
2021/07/03 02:11:39;;;;;;;29.73;26.60;;;;;;;;;;2044758;28;20244;-49
2021/07/03 02:12:46;;;;;;;30.90;26.52;;;;;;;;;;2046953;29;20178;-54
2021/07/03 02:13:54;;;;;;;29.00;25.58;;;;;;;;;;2037599;29;20164;-47
2021/07/03 02:15:01;;;;;;;27.50;24.48;;;;;;;;;;2047694;28;20168;-49
2021/07/03 02:16:04;;;;;;;27.67;24.67;;;;;;;;;;2053763;28;20193;-53
2021/07/03 02:17:08;;;;;;;28.80;25.55;;;;;;;;;;2048914;29;20267;-51
2021/07/03 02:18:11;;;;;;;28.05;24.50;;;;;;;;;;2046213;29;20180;-49
2021/07/03 02:19:12;;;;;;;31.08;25.92;;;;;;;;;;2046646;28;20242;-51
2021/07/03 02:20:13;;;;;;;31.27;25.80;;;;;;;;;;2048551;28;20696;-54
2021/07/03 02:21:40;;;;;;;31.30;25.20;;;;;;;;;;2046038;29;20195;-52
2021/07/03 02:22:47;;;;;;;28.58;25.52;;;;;;;;;;2050478;28;20191;-48
2021/07/03 02:23:52;;;;;;;32.72;26.92;;;;;;;;;;2048819;28;20178;-49
2021/07/03 02:24:52;;;;;;;31.90;26.15;;;;;;;;;;2041981;23;20232;-60
2021/07/03 02:25:57;;;;;;;32.03;27.05;;;;;;;;;;2033850;29;20207;-60
2021/07/03 02:27:03;;;;;;;30.75;25.83;;;;;;;;;;2039368;29;20262;-55
2021/07/03 02:28:06;;;;;;;29.30;25.75;;;;;;;;;;2045009;29;20176;-56
2021/07/03 02:29:09;;;;;;;33.30;26.05;;;;;;;;;;2036604;29;20171;-59
2021/07/03 02:30:12;;;;;;;32.95;26.65;;;;;;;;;;2032725;29;20248;-59
2021/07/03 02:31:12;;;;;;;30.48;26.23;;;;;;;;;;2032568;29;20256;-58
2021/07/03 02:32:15;;;;;;;30.50;26.05;;;;;;;;;;2031047;29;20577;-55
2021/07/03 02:33:16;;;;;;;29.45;26.27;;;;;;;;;;2033121;29;20168;-57
2021/07/03 02:34:19;;;;;;;30.95;26.95;;;;;;;;;;2039893;29;20570;-56
2021/07/03 02:35:19;;;;;;;34.63;26.95;;;;;;;;;;2024996;29;20204;-57
2021/07/03 02:36:20;;;;;;;30.10;27.00;;;;;;;;;;2024801;29;20169;-55
2021/07/03 02:37:20;;;;;;;35.25;27.70;;;;;;;;;;2032473;29;20179;-57
2021/07/03 02:38:21;;;;;;;32.30;26.23;;;;;;;;;;2032717;29;20183;-57
2021/07/03 02:39:22;;;;;;;32.78;26.60;;;;;;;;;;2033415;29;20625;-56
2021/07/03 02:40:26;;;;;;;32.50;26.27;;;;;;;;;;2033315;29;20184;-55
2021/07/03 02:41:28;;;;;;;32.42;27.52;;;;;;;;;;2032780;29;20180;-57
2021/07/03 02:42:29;;;;;;;33.53;29.15;;;;;;;;;;2025434;29;20169;-58
2021/07/03 02:43:29;;;;;;;32.45;29.02;;;;;;;;;;2024774;29;20181;-60
2021/07/03 02:44:34;;;;;;;30.50;26.75;;;;;;;;;;2026041;29;20211;-56
2021/07/03 02:45:35;;;;;;;33.80;27.77;;;;;;;;;;2033264;29;20755;-59
2021/07/03 02:46:35;;;;;;;31.95;27.63;;;;;;;;;;2033156;29;20189;-57
2021/07/03 02:47:36;;;;;;;32.53;25.92;;;;;;;;;;2025287;29;20193;-56
2021/07/03 02:48:36;;;;;;;32.20;28.08;;;;;;;;;;2025457;29;20195;-57
2021/07/03 02:49:37;;;;;;;32.28;26.60;;;;;;;;;;2025730;29;20188;-58
2021/07/03 02:50:37;;;;;;;32.13;26.10;;;;;;;;;;2024774;29;20240;-58
2021/07/03 02:51:41;;;;;;;30.80;25.77;;;;;;;;;;2027614;29;20173;-60
2021/07/03 02:52:41;;;;;;;31.60;27.23;;;;;;;;;;2034388;29;20200;-59
2021/07/03 02:53:42;;;;;;;30.73;25.90;;;;;;;;;;2037979;29;20187;-59
2021/07/03 02:54:42;;;;;;;31.67;27.13;;;;;;;;;;2030439;29;20243;-56
2021/07/03 02:55:43;;;;;;;32.28;25.75;;;;;;;;;;2038674;29;20172;-60
2021/07/03 02:56:44;;;;;;;29.30;26.08;;;;;;;;;;2029649;29;20167;-59
2021/07/03 02:57:44;;;;;;;30.27;26.25;;;;;;;;;;2028427;29;20229;-57
2021/07/03 02:58:47;;;;;;;31.23;26.50;;;;;;;;;;2035967;29;20172;-58
2021/07/03 02:59:48;;;;;;;30.30;26.25;;;;;;;;;;2041792;29;20216;-60
2021/07/03 03:00:48;;;;;;;28.98;25.88;;;;;;;;;;2035638;29;20237;-60
2021/07/03 03:01:49;;;;;;;30.17;25.95;;;;;;;;;;2035255;29;20183;-58
2021/07/03 03:02:50;;;;;;;31.92;25.45;;;;;;;;;;2034296;29;20168;-62
2021/07/03 03:03:50;;;;;;;31.60;26.38;;;;;;;;;;2036080;29;20176;-60
2021/07/03 03:04:51;;;;;;;33.22;25.10;;;;;;;;;;2036522;29;20192;-55
2021/07/03 03:05:52;;;;;;;29.25;24.70;;;;;;;;;;2034523;29;20180;-59
2021/07/03 03:06:53;;;;;;;28.90;25.73;;;;;;;;;;2033361;29;20587;-60
2021/07/03 03:07:53;;;;;;;29.88;26.75;;;;;;;;;;2032607;29;20227;-59
2021/07/03 03:08:55;;;;;;;29.95;26.63;;;;;;;;;;2034315;29;20239;-58
2021/07/03 03:09:57;;;;;;;30.40;25.95;;;;;;;;;;2025324;29;20519;-59
2021/07/03 03:10:59;;;;;;;32.50;26.48;;;;;;;;;;2032529;29;20222;-57
2021/07/03 03:12:01;;;;;;;28.02;24.15;;;;;;;;;;2032363;29;20192;-57
2021/07/03 03:13:02;;;;;;;27.77;24.73;;;;;;;;;;2032784;29;20177;-53
2021/07/03 03:14:05;;;;;;;29.20;26.10;;;;;;;;;;2033049;29;20706;-57
2021/07/03 03:15:07;;;;;;;30.60;25.90;;;;;;;;;;2032566;29;20219;-56
2021/07/03 03:16:07;;;;;;;34.97;26.02;;;;;;;;;;2033007;29;20180;-59
2021/07/03 03:17:08;;;;;;;30.48;25.95;;;;;;;;;;2024707;29;20191;-59
2021/07/03 03:18:08;;;;;;;29.95;24.70;;;;;;;;;;2016730;29;20187;-58
2021/07/03 03:19:12;;;;;;;30.23;25.25;;;;;;;;;;2024493;29;20177;-57
2021/07/03 03:20:15;;;;;;;31.67;26.27;;;;;;;;;;2032340;29;20638;-54
2021/07/03 03:21:16;;;;;;;28.17;25.20;;;;;;;;;;2030160;29;20185;-58
2021/07/03 03:22:18;;;;;;;28.95;25.85;;;;;;;;;;2033107;29;20234;-59
2021/07/03 03:23:18;;;;;;;30.27;25.50;;;;;;;;;;2031847;29;20595;-59
2021/07/03 03:24:19;;;;;;;30.63;27.00;;;;;;;;;;2032160;29;20183;-59
2021/07/03 03:25:21;;;;;;;34.58;28.35;;;;;;;;;;2032282;29;20282;-57
2021/07/03 03:26:21;;;;;;;37.35;30.15;;;;;;;;;;2032819;29;20172;-59
2021/07/03 03:27:22;;;;;;;36.78;32.13;;;;;;;;;;2032395;29;20187;-62
2021/07/03 03:28:22;;;;;;;40.63;33.65;;;;;;;;;;2032836;29;20179;-56
2021/07/03 03:29:25;;;;;;;47.03;33.80;;;;;;;;;;2032316;29;20180;-59
2021/07/03 03:30:28;;;;;;;42.63;32.47;;;;;;;;;;2028328;29;20244;-58
2021/07/03 03:31:29;;;;;;;47.88;35.13;;;;;;;;;;2024227;29;20180;-58
2021/07/03 03:32:31;;;;;;;40.72;32.92;;;;;;;;;;2032502;29;20181;-57
2021/07/03 03:33:31;;;;;;;38.97;32.28;;;;;;;;;;2029824;29;20248;-58
2021/07/03 03:34:32;;;;;;;40.55;32.22;;;;;;;;;;2024370;29;20177;-58
2021/07/03 03:35:32;;;;;;;40.08;31.67;;;;;;;;;;2032045;29;20647;-56
2021/07/03 03:36:36;;;;;;;40.78;32.05;;;;;;;;;;2022367;29;20257;-58
2021/07/03 03:37:38;;;;;;;36.13;29.45;;;;;;;;;;2029945;29;20708;-57
2021/07/03 03:38:40;;;;;;;35.33;29.70;;;;;;;;;;2021859;29;20267;-57
2021/07/03 03:39:41;;;;;;;31.20;27.58;;;;;;;;;;2023826;29;20185;-60
2021/07/03 03:40:42;;;;;;;36.60;28.73;;;;;;;;;;2038986;29;20239;-58
2021/07/03 03:41:46;;;;;;;30.90;27.30;;;;;;;;;;2036896;29;20220;-59
2021/07/03 03:42:48;;;;;;;37.00;28.95;;;;;;;;;;2039218;29;20628;-59
2021/07/03 03:43:52;;;;;;;39.40;32.15;;;;;;;;;;2030159;29;20192;-57
2021/07/03 03:44:54;;;;;;;36.13;29.35;;;;;;;;;;2028628;29;20252;-58
2021/07/03 03:45:54;;;;;;;33.03;28.20;;;;;;;;;;2031740;29;20263;-56
2021/07/03 03:46:55;;;;;;;31.67;27.85;;;;;;;;;;2032281;29;20172;-58
2021/07/03 03:48:00;;;;;;;31.90;27.75;;;;;;;;;;2029251;29;20567;-58
2021/07/03 03:49:05;;;;;;;35.03;27.30;;;;;;;;;;2029689;29;20184;-57
2021/07/03 03:50:06;;;;;;;31.17;26.85;;;;;;;;;;2032846;29;20184;-55
2021/07/03 03:51:06;;;;;;;30.58;27.35;;;;;;;;;;2034527;29;20194;-58
2021/07/03 03:52:10;;;;;;;31.23;26.67;;;;;;;;;;2024946;29;20169;-56
2021/07/03 03:53:11;;;;;;;30.90;26.40;;;;;;;;;;2032178;29;20176;-57
2021/07/03 03:54:12;;;;;;;34.45;27.02;;;;;;;;;;2031415;29;20297;-58
2021/07/03 03:55:12;;;;;;;30.77;27.33;;;;;;;;;;2022983;29;20229;-59
2021/07/03 03:56:13;;;;;;;30.23;26.95;;;;;;;;;;2031506;29;20252;-58
2021/07/03 03:57:21;;;;;;;29.58;26.38;;;;;;;;;;2029980;29;20208;-56
2021/07/03 03:58:22;;;;;;;29.73;26.63;;;;;;;;;;2030158;29;20342;-59
2021/07/03 03:59:24;;;;;;;30.50;27.30;;;;;;;;;;2032410;29;20180;-59
2021/07/03 04:00:25;;;;;;;32.10;28.27;;;;;;;;;;2025077;29;20188;-58
2021/07/03 04:01:37;;;;;;;31.35;28.02;;;;;;;;;;2033054;29;20188;-58
2021/07/03 04:02:37;;;;;;;31.23;27.60;;;;;;;;;;2040427;29;20188;-59
2021/07/03 04:03:39;;;;;;;37.05;28.58;;;;;;;;;;2032304;29;20190;-57
2021/07/03 04:04:39;;;;;;;34.63;29.00;;;;;;;;;;2022238;29;20200;-58
2021/07/03 04:05:39;;;;;;;35.38;29.50;;;;;;;;;;2031597;29;20248;-57
2021/07/03 04:06:40;;;;;;;32.50;28.30;;;;;;;;;;2032007;29;20196;-58
2021/07/03 04:07:41;;;;;;;32.15;28.55;;;;;;;;;;2033037;29;20188;-56
2021/07/03 04:08:41;;;;;;;35.40;27.40;;;;;;;;;;2029530;29;21484;-57
2021/07/03 04:09:42;;;;;;;30.45;26.85;;;;;;;;;;2029271;29;20208;-58
2021/07/03 04:10:45;;;;;;;33.45;26.77;;;;;;;;;;2039472;29;20413;-56
2021/07/03 04:11:45;;;;;;;30.00;26.77;;;;;;;;;;2030434;29;20245;-57
2021/07/03 04:12:45;;;;;;;29.65;25.20;;;;;;;;;;2033353;29;20197;-59
2021/07/03 04:13:45;;;;;;;28.20;24.77;;;;;;;;;;2032457;29;20227;-59
2021/07/03 04:14:46;;;;;;;29.50;24.13;;;;;;;;;;2032708;29;20192;-58
2021/07/03 04:15:46;;;;;;;26.40;23.65;;;;;;;;;;2032106;29;20558;-57
2021/07/03 04:16:46;;;;;;;27.08;24.27;;;;;;;;;;2031748;29;20199;-59
2021/07/03 04:17:47;;;;;;;26.63;23.90;;;;;;;;;;2031755;29;20172;-57
2021/07/03 04:18:47;;;;;;;26.27;23.73;;;;;;;;;;2032420;29;20255;-57
2021/07/03 04:19:47;;;;;;;26.75;23.67;;;;;;;;;;2031814;29;20176;-56
2021/07/03 04:20:47;;;;;;;26.98;24.05;;;;;;;;;;2032529;29;20691;-59
2021/07/03 04:21:48;;;;;;;27.77;24.95;;;;;;;;;;2032586;29;20259;-58
2021/07/03 04:22:48;;;;;;;26.52;23.80;;;;;;;;;;2033017;29;20183;-56
2021/07/03 04:23:48;;;;;;;29.70;25.13;;;;;;;;;;2031975;29;20188;-58
2021/07/03 04:24:51;;;;;;;27.80;24.92;;;;;;;;;;2032659;29;20219;-59
2021/07/03 04:25:51;;;;;;;26.13;23.52;;;;;;;;;;2031427;29;20264;-59
2021/07/03 04:26:51;;;;;;;26.05;23.25;;;;;;;;;;2031075;29;20221;-60
2021/07/03 04:27:52;;;;;;;27.40;24.75;;;;;;;;;;2029243;29;20216;-57
2021/07/03 04:28:53;;;;;;;25.80;23.20;;;;;;;;;;2031215;29;20172;-53
2021/07/03 04:29:53;;;;;;;25.80;23.08;;;;;;;;;;2032543;29;20210;-57
2021/07/03 04:30:53;;;;;;;28.08;25.27;;;;;;;;;;2030639;29;20236;-57
2021/07/03 04:31:53;;;;;;;29.67;26.50;;;;;;;;;;2030132;29;20531;-55
2021/07/03 04:32:53;;;;;;;27.10;24.33;;;;;;;;;;2031658;29;20675;-59
2021/07/03 04:33:54;;;;;;;28.27;25.27;;;;;;;;;;2033036;29;20176;-55
2021/07/03 04:34:54;;;;;;;28.02;24.90;;;;;;;;;;2032197;29;20257;-57
2021/07/03 04:35:54;;;;;;;29.38;26.27;;;;;;;;;;2031621;29;20251;-57
2021/07/03 04:36:55;;;;;;;27.48;24.52;;;;;;;;;;2032247;29;20183;-62
2021/07/03 04:37:56;;;;;;;30.20;27.00;;;;;;;;;;2031755;29;20188;-52
2021/07/03 04:38:56;;;;;;;28.75;25.45;;;;;;;;;;2030317;29;20176;-58
2021/07/03 04:39:56;;;;;;;28.63;25.67;;;;;;;;;;2037705;29;20227;-56
2021/07/03 04:40:56;;;;;;;32.40;28.85;;;;;;;;;;2039698;29;20264;-55
2021/07/03 04:41:57;;;;;;;30.77;27.65;;;;;;;;;;2036718;29;20199;-58
2021/07/03 04:42:57;;;;;;;30.73;27.23;;;;;;;;;;2028654;29;20182;-55
2021/07/03 04:44:00;;;;;;;30.73;26.90;;;;;;;;;;2025408;29;20683;-56
2021/07/03 04:45:00;;;;;;;33.75;28.10;;;;;;;;;;2029229;29;20287;-55
2021/07/03 04:46:05;;;;;;;31.27;28.05;;;;;;;;;;2031726;29;20192;-57
2021/07/03 04:47:12;;;;;;;29.88;25.70;;;;;;;;;;2030690;29;20621;-57
2021/07/03 04:48:13;;;;;;;27.77;24.77;;;;;;;;;;2030079;29;20274;-58
2021/07/03 04:49:17;;;;;;;23.58;21.27;;;;;;;;;;2032335;29;20623;-56
2021/07/03 04:50:18;;;;;;;29.40;25.95;;;;;;;;;;2031420;29;20176;-57
2021/07/03 04:51:18;;;;;;;32.20;25.45;;;;;;;;;;2031531;29;20829;-55
2021/07/03 04:52:18;;;;;;;27.83;24.88;;;;;;;;;;2031355;29;20173;-57
2021/07/03 04:53:19;;;;;;;26.38;23.65;;;;;;;;;;2034368;29;20727;-56
2021/07/03 04:54:21;;;;;;;27.40;24.33;;;;;;;;;;2025411;29;20320;-58
2021/07/03 04:55:21;;;;;;;29.13;25.38;;;;;;;;;;2025969;29;20243;-58
2021/07/03 04:56:21;;;;;;;26.00;23.38;;;;;;;;;;2034106;29;20172;-60
2021/07/03 04:57:22;;;;;;;25.95;23.25;;;;;;;;;;2032885;29;20173;-57
2021/07/03 04:58:22;;;;;;;25.25;22.75;;;;;;;;;;2034038;29;20177;-59
2021/07/03 04:59:22;;;;;;;24.67;22.20;;;;;;;;;;2033454;29;20232;-58
2021/07/03 05:00:23;;;;;;;24.92;22.45;;;;;;;;;;2033131;29;20633;-58
2021/07/03 05:01:23;;;;;;;25.67;22.98;;;;;;;;;;2032717;29;20833;-56
2021/07/03 05:02:23;;;;;;;27.25;24.45;;;;;;;;;;2033616;29;20184;-52
2021/07/03 05:03:24;;;;;;;25.60;23.08;;;;;;;;;;2033606;29;20644;-53
2021/07/03 05:04:24;;;;;;;24.95;22.48;;;;;;;;;;2033631;29;20214;-56
2021/07/03 05:05:24;;;;;;;27.38;23.33;;;;;;;;;;2033729;29;20172;-57
2021/07/03 05:06:25;;;;;;;27.02;24.15;;;;;;;;;;2032642;29;20180;-56
2021/07/03 05:07:25;;;;;;;27.42;24.48;;;;;;;;;;2027698;29;20217;-54
2021/07/03 05:08:36;;;;;;;27.08;24.55;;;;;;;;;;2031493;29;20718;-54
2021/07/03 05:09:36;;;;;;;32.70;29.30;;;;;;;;;;2026145;29;20201;-57
2021/07/03 05:10:36;;;;;;;30.17;27.10;;;;;;;;;;2032908;29;20660;-56
2021/07/03 05:11:36;;;;;;;28.42;25.30;;;;;;;;;;2026532;29;20700;-55
2021/07/03 05:12:37;;;;;;;26.58;23.98;;;;;;;;;;2026147;29;20260;-55
2021/07/03 05:13:37;;;;;;;33.92;30.20;;;;;;;;;;2027468;29;20204;-54
2021/07/03 05:14:37;;;;;;;29.13;26.13;;;;;;;;;;2033260;29;20192;-52
2021/07/03 05:15:38;;;;;;;30.13;26.67;;;;;;;;;;2026711;29;20260;-51
2021/07/03 05:16:38;;;;;;;28.58;25.70;;;;;;;;;;2033374;29;20226;-52
2021/07/03 05:17:38;;;;;;;29.83;26.55;;;;;;;;;;2028151;29;20208;-50
2021/07/03 05:18:38;;;;;;;33.28;28.77;;;;;;;;;;2031254;29;20533;-54
2021/07/03 05:19:39;;;;;;;28.73;25.75;;;;;;;;;;2026062;29;20563;-56
2021/07/03 05:20:39;;;;;;;30.70;27.20;;;;;;;;;;2025793;29;20201;-54
2021/07/03 05:21:40;;;;;;;33.33;29.35;;;;;;;;;;2032814;29;20188;-53
2021/07/03 05:22:41;;;;;;;30.65;27.42;;;;;;;;;;2026563;29;20185;-52
2021/07/03 05:23:41;;;;;;;31.95;28.63;;;;;;;;;;2033324;29;20256;-50
2021/07/03 05:24:41;;;;;;;29.27;26.25;;;;;;;;;;2033479;29;20270;-55
2021/07/03 05:25:44;;;;;;;29.45;26.38;;;;;;;;;;2034046;29;20553;-56
2021/07/03 05:26:44;;;;;;;31.20;27.90;;;;;;;;;;2029458;29;20185;-56
2021/07/03 05:27:44;;;;;;;27.88;24.98;;;;;;;;;;2026481;29;20181;-55
2021/07/03 05:28:45;;;;;;;29.95;26.38;;;;;;;;;;2033889;29;20199;-53
2021/07/03 05:29:45;;;;;;;33.92;30.42;;;;;;;;;;2033813;29;20192;-54
2021/07/03 05:30:45;;;;;;;32.83;29.25;;;;;;;;;;2033089;29;20291;-55
2021/07/03 05:31:46;;;;;;;35.13;30.23;;;;;;;;;;2025238;29;20168;-55
2021/07/03 05:32:46;;;;;;;34.75;28.20;;;;;;;;;;2032985;29;20718;-56
2021/07/03 05:33:46;;;;;;;31.20;27.80;;;;;;;;;;2033564;29;20177;-58
2021/07/03 05:34:46;;;;;;;29.05;26.13;;;;;;;;;;2034347;29;20272;-52
2021/07/03 05:35:47;;;;;;;27.85;25.15;;;;;;;;;;2033885;29;20668;-54
2021/07/03 05:36:48;;;;;;;30.80;27.60;;;;;;;;;;2033981;29;20172;-52
2021/07/03 05:37:48;;;;;;;27.83;25.00;;;;;;;;;;2027332;29;20184;-55
2021/07/03 05:38:49;;;;;;;26.45;23.88;;;;;;;;;;2033694;29;20272;-57
2021/07/03 05:39:50;;;;;;;38.00;31.45;;;;;;;;;;2033236;29;20231;-55
2021/07/03 05:40:50;;;;;;;29.10;26.15;;;;;;;;;;2027165;29;20180;-54
2021/07/03 05:41:50;;;;;;;35.20;31.60;;;;;;;;;;2033501;29;20196;-56
2021/07/03 05:42:51;;;;;;;31.05;27.83;;;;;;;;;;2033424;29;20168;-54
2021/07/03 05:43:51;;;;;;;31.98;28.08;;;;;;;;;;2028195;29;20195;-58
2021/07/03 05:44:51;;;;;;;27.65;24.75;;;;;;;;;;2033264;29;20211;-56
2021/07/03 05:45:52;;;;;;;30.15;26.90;;;;;;;;;;2033211;29;20180;-53
2021/07/03 05:46:52;;;;;;;32.13;28.90;;;;;;;;;;2033380;29;20251;-57
2021/07/03 05:47:52;;;;;;;30.23;26.02;;;;;;;;;;2033885;29;20688;-52
2021/07/03 05:48:53;;;;;;;41.20;36.30;;;;;;;;;;2034414;29;20197;-57
2021/07/03 05:49:53;;;;;;;31.08;27.73;;;;;;;;;;2034498;29;20187;-58
2021/07/03 05:50:53;;;;;;;32.50;29.20;;;;;;;;;;2034151;29;20204;-54
2021/07/03 05:51:54;;;;;;;34.10;30.42;;;;;;;;;;2033372;29;20272;-55
2021/07/03 05:52:55;;;;;;;29.63;26.23;;;;;;;;;;2025919;29;20177;-52
2021/07/03 05:53:55;;;;;;;29.27;26.17;;;;;;;;;;2018141;29;20165;-52
2021/07/03 05:54:56;;;;;;;30.23;26.92;;;;;;;;;;2025844;29;20203;-54
2021/07/03 05:55:56;;;;;;;32.22;28.73;;;;;;;;;;2026730;29;20630;-54
2021/07/03 05:56:57;;;;;;;31.02;27.65;;;;;;;;;;2026460;29;20196;-51
2021/07/03 05:57:57;;;;;;;29.98;26.90;;;;;;;;;;2026564;29;20539;-53